createdAt,value
2023-03-11T00:01:41.467Z,0.50
2023-03-11T00:04:13.476Z,0.60
2023-03-11T00:10:01.049Z,0.24
2023-03-11T00:12:33.562Z,0.26
2023-03-11T00:15:09.441Z,-0.01
2023-03-11T00:17:42.208Z,0.08
2023-03-11T00:20:21.686Z,0.13
2023-03-11T00:22:54.466Z,-0.11
2023-03-11T00:25:29.109Z,-0.15
2023-03-11T00:28:02.204Z,-0.29
2023-03-11T00:30:53.577Z,-0.27
2023-03-11T00:33:26.834Z,-0.37
2023-03-11T00:35:59.194Z,-0.33
2023-03-11T00:38:31.543Z,-0.46
2023-03-11T00:41:10.821Z,-0.49
2023-03-11T00:43:42.769Z,-0.45
2023-03-11T00:46:16.671Z,-0.41
2023-03-11T00:48:49.317Z,-0.44
2023-03-11T00:51:25.678Z,-0.39
2023-03-11T00:53:57.278Z,-0.39
2023-03-11T00:56:28.611Z,-0.44
2023-03-11T00:59:00.357Z,-0.61
2023-03-11T01:01:34.277Z,-0.51
2023-03-11T01:04:05.758Z,-0.61
2023-03-11T01:06:45.169Z,-0.51
2023-03-11T01:09:17.438Z,-0.53
2023-03-11T01:11:49.136Z,-0.55
2023-03-11T01:14:21.003Z,-0.52
2023-03-11T01:16:55.567Z,-0.62
2023-03-11T01:19:27.253Z,-0.68
2023-03-11T01:21:59.044Z,-0.73
2023-03-11T01:24:30.583Z,-0.61
2023-03-11T01:27:01.810Z,-0.64
2023-03-11T01:29:33.478Z,-0.73
2023-03-11T01:32:08.916Z,-0.57
2023-03-11T01:34:40.459Z,-0.67
2023-03-11T01:37:11.801Z,-0.76
2023-03-11T01:39:43.663Z,-0.67
2023-03-11T01:42:14.957Z,-0.72
2023-03-11T01:47:50.121Z,-0.77
2023-03-11T01:50:22.142Z,-0.61
2023-03-11T01:52:53.580Z,-0.72
2023-03-11T01:55:26.618Z,-0.67
2023-03-11T01:57:58.719Z,-0.56
2023-03-11T02:00:30.802Z,-0.74
2023-03-11T02:03:10.404Z,-0.62
2023-03-11T02:05:43.906Z,-0.65
2023-03-11T02:08:17.814Z,-0.55
2023-03-11T02:10:53.249Z,-0.64
2023-03-11T02:13:24.710Z,-0.65
2023-03-11T02:15:56.590Z,-0.63
2023-03-11T02:18:32.131Z,-0.59
2023-03-11T02:21:14.614Z,-0.64
2023-03-11T02:23:55.613Z,-0.70
2023-03-11T02:26:34.338Z,-0.42
2023-03-11T02:29:15.359Z,-0.63
2023-03-11T02:31:48.744Z,-0.63
2023-03-11T02:34:29.237Z,-0.57
2023-03-11T02:37:02.853Z,-0.66
2023-03-11T02:39:36.115Z,-0.62
2023-03-11T02:42:14.084Z,-0.66
2023-03-11T02:44:54.598Z,-0.58
2023-03-11T02:47:27.392Z,-0.70
2023-03-11T02:50:00.213Z,-0.53
2023-03-11T02:52:35.238Z,-0.47
2023-03-11T02:55:07.361Z,-0.56
2023-03-11T02:57:39.830Z,-0.54
2023-03-11T03:00:18.562Z,-0.58
2023-03-11T03:02:52.466Z,-0.59
2023-03-11T03:05:25.747Z,-0.67
2023-03-11T03:07:57.995Z,-0.68
2023-03-11T03:10:31.006Z,-0.46
2023-03-11T03:13:02.838Z,-0.62
2023-03-11T03:15:36.813Z,-0.66
2023-03-11T03:18:08.526Z,-0.59
2023-03-11T03:20:40.054Z,-0.66
2023-03-11T03:23:11.575Z,-0.56
2023-03-11T03:25:47.205Z,-0.45
2023-03-11T03:28:18.770Z,-0.68
2023-03-11T03:30:53.022Z,-0.58
2023-03-11T03:33:25.080Z,-0.65
2023-03-11T03:35:56.138Z,-0.62
2023-03-11T03:38:28.345Z,-0.50
2023-03-11T03:41:00.182Z,-0.62
2023-03-11T03:43:31.412Z,-0.58
2023-03-11T03:46:08.438Z,-0.56
2023-03-11T03:48:39.962Z,-0.47
2023-03-11T03:51:14.124Z,-0.49
2023-03-11T03:53:46.815Z,-0.48
2023-03-11T03:56:20.155Z,-0.44
2023-03-11T03:58:54.169Z,-0.63
2023-03-11T04:01:30.804Z,-0.48
2023-03-11T04:04:02.620Z,-0.51
2023-03-11T04:06:33.889Z,-0.40
2023-03-11T04:09:05.288Z,-0.42
2023-03-11T04:11:36.514Z,-0.58
2023-03-11T04:14:09.233Z,-0.43
2023-03-11T04:16:44.005Z,-0.43
2023-03-11T04:19:15.575Z,-0.54
2023-03-11T04:21:46.921Z,-0.57
2023-03-11T04:24:18.699Z,-0.46
2023-03-11T04:26:49.991Z,-0.43
2023-03-11T04:29:21.655Z,-0.43
2023-03-11T04:31:55.689Z,-0.41
2023-03-11T04:34:27.315Z,-0.49
2023-03-11T04:36:58.835Z,-0.42
2023-03-11T04:39:30.200Z,-0.49
2023-03-11T04:42:03.879Z,-0.34
2023-03-11T04:44:38.981Z,-0.46
2023-03-11T04:47:17.443Z,-0.44
2023-03-11T04:49:49.301Z,-0.48
2023-03-11T04:52:20.575Z,-0.33
2023-03-11T04:54:53.555Z,-0.55
2023-03-11T04:57:25.089Z,-0.39
2023-03-11T04:59:57.901Z,-0.45
2023-03-11T05:02:32.402Z,-0.38
2023-03-11T05:05:05.157Z,-0.56
2023-03-11T05:07:36.895Z,-0.50
2023-03-11T05:10:09.949Z,-0.54
2023-03-11T05:12:41.914Z,-0.42
2023-03-11T05:15:14.691Z,-0.46
2023-03-11T05:17:49.915Z,-0.49
2023-03-11T05:20:22.201Z,-0.36
2023-03-11T05:22:54.246Z,-0.50
2023-03-11T05:25:26.876Z,-0.48
2023-03-11T05:27:59.221Z,-0.50
2023-03-11T05:30:31.655Z,-0.50
2023-03-11T05:33:06.662Z,-0.32
2023-03-11T05:35:39.666Z,-0.34
2023-03-11T05:38:11.948Z,-0.27
2023-03-11T05:40:44.825Z,-0.29
2023-03-11T05:43:16.837Z,-0.27
2023-03-11T05:45:49.364Z,-0.38
2023-03-11T05:48:26.821Z,-0.40
2023-03-11T05:50:59.958Z,-0.36
2023-03-11T05:53:31.698Z,-0.38
2023-03-11T05:56:04.426Z,-0.40
2023-03-11T05:58:36.539Z,-0.36
2023-03-11T06:01:12.268Z,-0.52
2023-03-11T06:03:46.826Z,-0.38
2023-03-11T06:06:19.476Z,-0.26
2023-03-11T06:08:50.648Z,-0.31
2023-03-11T06:11:24.284Z,-0.37
2023-03-11T06:13:56.738Z,-0.40
2023-03-11T06:16:30.524Z,-0.40
2023-03-11T06:19:04.593Z,-0.36
2023-03-11T06:21:36.915Z,-0.34
2023-03-11T06:24:09.841Z,-0.28
2023-03-11T06:26:41.445Z,-0.30
2023-03-11T06:29:17.358Z,-0.24
2023-03-11T06:31:49.348Z,-0.29
2023-03-11T06:34:23.910Z,-0.16
2023-03-11T06:36:55.478Z,-0.24
2023-03-11T06:39:27.007Z,-0.35
2023-03-11T06:41:58.322Z,-0.21
2023-03-11T06:44:29.457Z,-0.15
2023-03-11T06:47:01.300Z,-0.24
2023-03-11T06:49:34.948Z,-0.26
2023-03-11T06:52:06.751Z,-0.23
2023-03-11T06:54:38.974Z,-0.33
2023-03-11T06:57:11.393Z,-0.24
2023-03-11T06:59:43.385Z,-0.31
2023-03-11T07:02:17.384Z,-0.25
2023-03-11T07:04:52.487Z,-0.46
2023-03-11T07:07:24.409Z,-0.51
2023-03-11T07:09:58.448Z,-0.41
2023-03-11T07:12:29.987Z,-0.38
2023-03-11T07:15:02.339Z,-0.26
2023-03-11T07:17:34.158Z,-0.18
2023-03-11T07:20:09.638Z,-0.24
2023-03-11T07:22:41.095Z,-0.24
2023-03-11T07:25:12.811Z,-0.13
2023-03-11T07:27:44.594Z,-0.13
2023-03-11T07:30:18.199Z,-0.23
2023-03-11T07:32:50.666Z,-0.07
2023-03-11T07:35:24.897Z,-0.16
2023-03-11T07:37:56.784Z,-0.22
2023-03-11T07:40:27.863Z,-0.15
2023-03-11T07:42:59.487Z,-0.03
2023-03-11T07:45:32.031Z,-0.16
2023-03-11T07:48:03.708Z,-0.38
2023-03-11T07:50:37.668Z,-0.13
2023-03-11T07:53:09.823Z,-0.03
2023-03-11T07:55:41.270Z,-0.05
2023-03-11T07:58:13.047Z,-0.23
2023-03-11T08:00:47.812Z,0.05
2023-03-11T08:03:20.416Z,0.13
2023-03-11T08:05:54.850Z,0.01
2023-03-11T08:08:27.094Z,0.28
2023-03-11T08:11:07.401Z,0.54
2023-03-11T08:13:39.448Z,0.34
2023-03-11T08:16:14.073Z,0.47
2023-03-11T08:18:46.941Z,0.21
2023-03-11T08:21:24.767Z,0.47
2023-03-11T08:24:02.095Z,0.68
2023-03-11T08:26:34.607Z,0.85
2023-03-11T08:29:08.114Z,0.83
2023-03-11T08:31:40.741Z,1.26
2023-03-11T08:34:14.748Z,1.87
2023-03-11T08:36:49.571Z,1.56
2023-03-11T08:39:20.994Z,1.49
2023-03-11T08:41:52.597Z,1.13
2023-03-11T08:44:24.149Z,1.18
2023-03-11T08:46:55.804Z,0.63
2023-03-11T08:49:27.140Z,0.79
2023-03-11T08:52:01.967Z,0.57
2023-03-11T08:54:34.293Z,0.37
2023-03-11T08:57:06.351Z,0.51
2023-03-11T08:59:37.982Z,0.58
2023-03-11T09:02:09.725Z,0.82
2023-03-11T09:04:40.993Z,0.77
2023-03-11T09:07:15.517Z,0.87
2023-03-11T09:09:47.672Z,0.88
2023-03-11T09:12:19.075Z,1.10
2023-03-11T09:14:51.018Z,1.33
2023-03-11T09:17:22.462Z,1.60
2023-03-11T09:19:54.232Z,1.40
2023-03-11T09:22:28.330Z,1.33
2023-03-11T09:25:00.876Z,1.41
2023-03-11T09:27:32.655Z,1.46
2023-03-11T09:30:04.445Z,1.20
2023-03-11T09:32:39.329Z,1.51
2023-03-11T09:35:11.378Z,1.40
2023-03-11T09:37:45.616Z,1.31
2023-03-11T09:40:20.667Z,1.51
2023-03-11T09:43:05.063Z,1.53
2023-03-11T09:45:40.457Z,1.01
2023-03-11T09:48:23.513Z,0.72
2023-03-11T09:51:02.203Z,0.77
2023-03-11T09:53:43.827Z,0.86
2023-03-11T09:56:22.531Z,0.71
2023-03-11T09:58:57.886Z,0.39
2023-03-11T10:01:33.680Z,0.42
2023-03-11T10:04:12.276Z,0.70
2023-03-11T10:06:48.476Z,0.47
2023-03-11T10:09:37.045Z,0.78
2023-03-11T10:12:23.530Z,1.11
2023-03-11T10:15:09.701Z,1.21
2023-03-11T10:18:07.563Z,1.21
2023-03-11T10:20:49.741Z,0.65
2023-03-11T10:23:29.309Z,1.23
2023-03-11T10:26:14.997Z,2.32
2023-03-11T10:28:55.071Z,2.28
2023-03-11T10:31:30.392Z,2.45
2023-03-11T10:34:07.725Z,2.61
2023-03-11T10:36:46.506Z,2.34
2023-03-11T10:39:19.007Z,2.36
2023-03-11T10:41:57.327Z,2.42
2023-03-11T10:44:37.224Z,1.66
2023-03-11T10:47:10.026Z,1.90
2023-03-11T10:49:41.653Z,2.46
2023-03-11T10:52:13.479Z,2.67
2023-03-11T10:54:48.381Z,1.91
2023-03-11T10:57:28.570Z,1.75
2023-03-11T11:00:02.017Z,1.55
2023-03-11T11:02:35.716Z,1.64
2023-03-11T11:05:25.035Z,1.62
2023-03-11T11:08:07.338Z,1.46
2023-03-11T11:10:40.902Z,1.66
2023-03-11T11:13:26.705Z,1.75
2023-03-11T11:16:03.915Z,1.39
2023-03-11T11:18:38.746Z,1.53
2023-03-11T11:21:12.841Z,1.64
2023-03-11T11:23:46.353Z,1.27
2023-03-11T11:26:21.669Z,1.59
2023-03-11T11:29:10.590Z,1.90
2023-03-11T11:31:45.139Z,1.66
2023-03-11T11:34:41.458Z,1.76
2023-03-11T11:37:16.795Z,1.99
2023-03-11T11:39:52.585Z,2.01
2023-03-11T11:42:27.667Z,2.21
2023-03-11T11:45:07.528Z,2.44
2023-03-11T11:47:45.681Z,2.41
2023-03-11T11:50:32.321Z,2.20
2023-03-11T11:53:14.660Z,1.81
2023-03-11T11:55:52.822Z,1.72
2023-03-11T11:58:25.249Z,2.00
2023-03-11T12:01:10.663Z,2.27
2023-03-11T12:04:22.479Z,2.11
2023-03-11T12:07:04.163Z,2.23
2023-03-11T12:09:44.061Z,2.37
2023-03-11T12:12:28.536Z,2.53
2023-03-11T12:15:10.417Z,2.91
2023-03-11T12:17:48.079Z,2.93
2023-03-11T12:20:28.338Z,2.92
2023-03-11T12:23:20.489Z,2.54
2023-03-11T12:26:06.379Z,2.10
2023-03-11T12:28:44.219Z,2.13
2023-03-11T12:31:17.132Z,1.83
2023-03-11T12:33:54.205Z,1.95
2023-03-11T12:36:48.850Z,2.13
2023-03-11T12:39:32.839Z,1.88
2023-03-11T12:42:43.252Z,1.98
2023-03-11T12:45:50.725Z,1.95
2023-03-11T12:48:46.177Z,1.82
2023-03-11T12:51:44.550Z,1.99
2023-03-11T12:54:33.113Z,1.92
2023-03-11T12:57:34.361Z,2.07
2023-03-11T13:00:45.717Z,1.95
2023-03-11T13:03:51.167Z,1.67
2023-03-11T13:06:40.293Z,1.59
2023-03-11T13:09:20.268Z,1.77
2023-03-11T13:12:05.028Z,1.60
2023-03-11T13:14:51.566Z,1.81
2023-03-11T13:17:31.265Z,1.86
2023-03-11T13:20:08.046Z,1.90
2023-03-11T13:23:03.870Z,1.81
2023-03-11T13:25:51.247Z,1.86
2023-03-11T13:28:51.387Z,1.59
2023-03-11T13:31:56.377Z,1.59
2023-03-11T13:34:38.407Z,1.76
2023-03-11T13:37:25.568Z,2.05
2023-03-11T13:40:16.175Z,2.12
2023-03-11T13:42:56.928Z,2.07
2023-03-11T13:45:50.662Z,2.22
2023-03-11T13:48:32.457Z,1.99
2023-03-11T13:51:20.055Z,1.99
2023-03-11T13:54:24.482Z,1.97
2023-03-11T13:57:11.970Z,2.02
2023-03-11T13:59:46.331Z,1.73
2023-03-11T14:02:21.640Z,1.94
2023-03-11T14:04:56.427Z,2.24
2023-03-11T14:07:32.005Z,1.98
2023-03-11T14:10:55.860Z,2.09
2023-03-11T14:13:29.491Z,2.12
2023-03-11T14:16:11.234Z,2.22
2023-03-11T14:18:48.712Z,2.06
2023-03-11T14:21:23.578Z,1.62
2023-03-11T14:23:58.047Z,1.24
2023-03-11T14:26:34.423Z,1.32
2023-03-11T14:29:34.545Z,1.66
2023-03-11T14:32:28.302Z,1.59
2023-03-11T14:35:00.783Z,1.71
2023-03-11T14:37:36.337Z,1.87
2023-03-11T14:40:26.524Z,1.98
2023-03-11T14:43:02.028Z,1.94
2023-03-11T14:45:37.624Z,2.23
2023-03-11T14:48:18.424Z,1.84
2023-03-11T14:50:52.756Z,1.75
2023-03-11T14:53:28.529Z,1.97
2023-03-11T14:56:02.517Z,1.92
2023-03-11T14:58:37.387Z,2.19
2023-03-11T15:01:17.725Z,2.13
2023-03-11T15:03:54.910Z,2.31
2023-03-11T15:06:29.590Z,2.34
2023-03-11T15:09:05.067Z,2.02
2023-03-11T15:11:49.060Z,2.32
2023-03-11T15:14:33.417Z,2.18
2023-03-11T15:17:33.644Z,2.00
2023-03-11T15:20:25.880Z,2.30
2023-03-11T15:23:01.585Z,2.00
2023-03-11T15:25:36.913Z,1.93
2023-03-11T15:28:28.476Z,1.93
2023-03-11T15:31:19.618Z,2.09
2023-03-11T15:33:52.920Z,1.98
2023-03-11T15:36:39.956Z,2.11
2023-03-11T15:39:21.593Z,2.16
2023-03-11T15:42:03.793Z,2.04
2023-03-11T15:44:41.073Z,2.10
2023-03-11T15:47:18.341Z,2.17
2023-03-11T15:49:51.713Z,2.08
2023-03-11T15:52:26.555Z,2.09
2023-03-11T15:54:59.198Z,1.66
2023-03-11T15:57:33.057Z,1.65
2023-03-11T16:00:06.139Z,1.94
2023-03-11T16:02:38.718Z,1.75
2023-03-11T16:05:17.341Z,1.55
2023-03-11T16:07:53.180Z,1.56
2023-03-11T16:10:28.987Z,1.23
2023-03-11T16:13:01.285Z,1.24
2023-03-11T16:15:35.547Z,1.41
2023-03-11T16:18:09.910Z,1.53
2023-03-11T16:20:45.103Z,1.35
2023-03-11T16:23:23.759Z,1.43
2023-03-11T16:25:59.663Z,1.36
2023-03-11T16:28:32.213Z,1.24
2023-03-11T16:31:05.130Z,1.23
2023-03-11T16:33:39.166Z,1.16
2023-03-11T16:36:16.659Z,1.30
2023-03-11T16:38:54.151Z,1.21
2023-03-11T16:41:27.324Z,1.09
2023-03-11T16:44:00.896Z,1.24
2023-03-11T16:46:33.531Z,1.23
2023-03-11T16:49:05.694Z,1.12
2023-03-11T16:51:38.486Z,1.05
2023-03-11T16:54:13.556Z,1.05
2023-03-11T16:56:46.398Z,0.98
2023-03-11T16:59:18.686Z,1.20
2023-03-11T17:01:51.116Z,1.13
2023-03-11T17:04:23.527Z,1.05
2023-03-11T17:06:56.430Z,0.87
2023-03-11T17:09:31.345Z,1.01
2023-03-11T17:12:04.228Z,1.02
2023-03-11T17:14:36.911Z,0.93
2023-03-11T17:17:09.271Z,1.00
2023-03-11T17:19:41.236Z,0.89
2023-03-11T17:22:13.611Z,0.88
2023-03-11T17:24:48.313Z,0.85
2023-03-11T17:27:20.768Z,0.82
2023-03-11T17:29:53.476Z,0.82
2023-03-11T17:32:26.156Z,0.88
2023-03-11T17:34:58.288Z,0.91
2023-03-11T17:37:30.609Z,0.95
2023-03-11T17:40:05.748Z,0.85
2023-03-11T17:42:39.575Z,0.85
2023-03-11T17:45:13.277Z,0.84
2023-03-11T17:47:45.788Z,0.54
2023-03-11T17:50:18.536Z,0.56
2023-03-11T17:52:51.029Z,0.59
2023-03-11T17:55:26.595Z,0.61
2023-03-11T17:57:59.286Z,0.47
2023-03-11T18:00:31.511Z,0.33
2023-03-11T18:03:04.450Z,0.46
2023-03-11T18:05:38.484Z,0.58
2023-03-11T18:08:11.442Z,0.62
2023-03-11T18:10:53.061Z,0.22
2023-03-11T18:13:26.464Z,0.45
2023-03-11T18:16:02.289Z,0.34
2023-03-11T18:18:45.765Z,0.30
2023-03-11T18:21:20.262Z,0.12
2023-03-11T18:23:53.107Z,0.17
2023-03-11T18:26:29.442Z,0.08
2023-03-11T18:29:03.124Z,0.16
2023-03-11T18:31:35.486Z,0.14
2023-03-11T18:34:13.959Z,0.01
2023-03-11T18:36:45.901Z,0.10
2023-03-11T18:39:18.462Z,-0.09
2023-03-11T18:41:53.045Z,0.04
2023-03-11T18:44:25.349Z,0.13
2023-03-11T18:46:59.220Z,-0.07
2023-03-11T18:49:31.722Z,0.13
2023-03-11T18:52:03.560Z,0.10
2023-03-11T18:54:35.930Z,0.02
2023-03-11T18:57:10.591Z,-0.10
2023-03-11T18:59:42.646Z,-0.02
2023-03-11T19:02:15.121Z,-0.02
2023-03-11T19:04:48.860Z,-0.19
2023-03-11T19:07:20.703Z,-0.09
2023-03-11T19:09:53.090Z,-0.03
2023-03-11T19:12:29.905Z,0.14
2023-03-11T19:15:02.229Z,0.22
2023-03-11T19:17:34.290Z,0.09
2023-03-11T19:20:08.591Z,-0.01
2023-03-11T19:22:40.914Z,-0.04
2023-03-11T19:25:13.699Z,0.05
2023-03-11T19:27:48.261Z,0.02
2023-03-11T19:30:21.591Z,0.08
2023-03-11T19:32:53.646Z,0.08
2023-03-11T19:35:27.147Z,-0.06
2023-03-11T19:37:59.549Z,0.17
2023-03-11T19:40:33.904Z,0.14
2023-03-11T19:43:08.658Z,0.07
2023-03-11T19:45:40.886Z,0.08
2023-03-11T19:48:13.330Z,0.03
2023-03-11T19:50:45.725Z,-0.03
2023-03-11T19:53:18.319Z,0.12
2023-03-11T19:55:53.057Z,0.24
2023-03-11T19:58:30.808Z,0.10
2023-03-11T20:01:04.063Z,0.13
2023-03-11T20:03:35.877Z,-0.01
2023-03-11T20:06:10.285Z,0.00
2023-03-11T20:08:42.359Z,0.04
2023-03-11T20:11:15.040Z,0.09
2023-03-11T20:13:50.521Z,-0.16
2023-03-11T20:16:23.384Z,0.01
2023-03-11T20:18:55.555Z,0.12
2023-03-11T20:21:27.926Z,-0.03
2023-03-11T20:24:00.237Z,-0.02
2023-03-11T20:26:32.662Z,0.11
2023-03-11T20:29:08.178Z,-0.08
2023-03-11T20:31:40.809Z,0.08
2023-03-11T20:34:13.570Z,0.05
2023-03-11T20:36:46.932Z,-0.03
2023-03-11T20:39:19.112Z,-0.05
2023-03-11T20:41:52.621Z,0.21
2023-03-11T20:44:27.837Z,0.08
2023-03-11T20:47:00.309Z,0.03
2023-03-11T20:49:32.783Z,-0.02
2023-03-11T20:52:05.422Z,-0.02
2023-03-11T20:54:37.634Z,0.07
2023-03-11T20:57:10.188Z,0.02
2023-03-11T20:59:44.913Z,0.05
2023-03-11T21:02:17.259Z,0.02
2023-03-11T21:04:49.747Z,0.14
2023-03-11T21:07:21.886Z,0.11
2023-03-11T21:09:55.172Z,-0.05
2023-03-11T21:12:30.633Z,0.02
2023-03-11T21:15:05.676Z,0.11
2023-03-11T21:17:38.654Z,0.08
2023-03-11T21:20:11.546Z,-0.10
2023-03-11T21:22:46.891Z,0.16
2023-03-11T21:25:19.376Z,-0.02
2023-03-11T21:27:51.489Z,0.09
2023-03-11T21:30:26.100Z,0.19
2023-03-11T21:32:58.530Z,-0.02
2023-03-11T21:35:32.058Z,0.01
2023-03-11T21:38:04.507Z,-0.07
2023-03-11T21:40:36.444Z,0.06
2023-03-11T21:43:08.635Z,-0.04
2023-03-11T21:45:43.366Z,0.15
2023-03-11T21:48:16.211Z,-0.06
2023-03-11T21:50:49.022Z,0.12
2023-03-11T21:53:29.510Z,0.11
2023-03-11T21:56:04.335Z,0.10
2023-03-11T21:58:36.842Z,-0.01
2023-03-11T22:01:12.293Z,0.18
2023-03-11T22:03:44.371Z,0.12
2023-03-11T22:06:16.438Z,-0.05
2023-03-11T22:08:49.362Z,0.13
2023-03-11T22:11:21.359Z,0.21
2023-03-11T22:14:00.789Z,0.15
2023-03-11T22:16:42.888Z,0.03
2023-03-11T22:19:33.486Z,0.13
2023-03-11T22:22:05.390Z,0.09
2023-03-11T22:24:40.430Z,0.03
2023-03-11T22:27:14.620Z,0.13
2023-03-11T22:29:46.997Z,0.00
2023-03-11T22:32:45.120Z,0.11
2023-03-11T22:35:20.097Z,0.02
2023-03-11T22:37:52.096Z,0.05
2023-03-11T22:40:26.523Z,-0.02
2023-03-11T22:42:58.515Z,-0.02
2023-03-11T22:45:30.998Z,0.00
2023-03-11T22:48:05.906Z,0.09
2023-03-11T22:53:50.567Z,-0.24
2023-03-11T22:56:23.182Z,-0.12
2023-03-11T22:58:55.156Z,-0.17
2023-03-11T23:01:27.508Z,-0.20
2023-03-11T23:04:02.781Z,0.04
2023-03-11T23:06:35.158Z,-0.15
2023-03-11T23:09:07.717Z,-0.14
2023-03-11T23:11:40.483Z,-0.26
2023-03-11T23:14:12.336Z,-0.32
2023-03-11T23:16:44.415Z,-0.20
2023-03-11T23:19:18.764Z,-0.28
2023-03-11T23:21:50.636Z,-0.21
2023-03-11T23:24:22.235Z,-0.17
2023-03-11T23:26:54.196Z,-0.19
2023-03-11T23:29:25.837Z,-0.24
2023-03-11T23:31:57.882Z,-0.44
2023-03-11T23:34:32.123Z,-0.39
2023-03-11T23:37:05.497Z,-0.32
2023-03-11T23:39:37.395Z,-0.27
2023-03-11T23:42:24.444Z,-0.20
2023-03-11T23:44:57.746Z,-0.47
2023-03-11T23:47:29.722Z,-0.43
2023-03-11T23:50:04.413Z,-0.38
2023-03-11T23:52:36.774Z,-0.39
2023-03-11T23:55:21.816Z,-0.46
2023-03-11T23:57:54.233Z,-0.31
